Anaconda, Montana
Current Conditions -  °F | °C
As of 8:53 AM on Tuesday 21 Oct 2014 (Local Time) from KBTM Reporting Station
Few Clouds Few Clouds  
Wind Chill: 53°   Ceiling: Unl
Heat Index: 53°   Visibility: 10mi
Dew Point: 39°   Wind: 10mph
Humidity: 59%   Direction: 210°SSW
Pressure: 29.75"   Gusts: NA
Location:  46.13°N, 112.94°W
Report Text: KBTM 211453Z AUTO 21009KT 10SM FEW100 12/04 A2975 RMK AO2 SLP032 60000 T01170039 56009
Loading
Personal Weather Stations






























Interactive Weather Map New forecast layout! Learn more

10-Day Weather Forecast

Advertisements
Track Severe Weather on mobile